This is the latest recevied weather packets stored in our database for station/object KM4NDI. If no packets are shown the sender has not sent any weather packets the latest 10 day(s).
| Time | Temp. | Humidity | Pressure | Rain* | Wind** | Luminosity | Snow |
|---|---|---|---|---|---|---|---|
| 1777578924 | 27.78° C | 55% | 1015.2 hPa | 0 mm | - | - | - |
| 1777578321 | 28.33° C | 52% | 1015.5 hPa | 0 mm | - | - | - |
| 1777567529 | 27.22° C | 62% | 1016.4 hPa | 0 mm | - | - | - |
| 1777565117 | 26.11° C | 65% | 1016.4 hPa | 0 mm | - | - | - |
| 1777562757 | 23.89° C | 78% | 1016.3 hPa | 0 mm | - | - | - |
| 1777561524 | 23.33° C | 77% | 1016.1 hPa | 0 mm | - | - | - |
| 1777560330 | 22.22° C | 85% | 1016 hPa | 0 mm | - | - | - |
| 1777558521 | 18.89° C | 99% | 1016.1 hPa | 0 mm | - | - | - |
| 1777553119 | 16.67° C | 99% | 1015.5 hPa | 0 mm | - | - | - |
| 1777550128 | 17.22° C | 99% | 1014.6 hPa | 0 mm | - | - | - |
| 1777547125 | 16.11° C | 99% | 1014.3 hPa | 0 mm | - | - | - |
| 1777546529 | 16.11° C | 99% | 1013.8 hPa | 0 mm | - | - | - |
| 1777542929 | 16.67° C | 99% | 1012.9 hPa | 4.57 mm | - | - | - |
| 1777541120 | 17.22° C | 99% | 1014.2 hPa | 0.25 mm | - | - | - |
| 1777539329 | 17.22° C | 99% | 1013.8 hPa | 0 mm | - | - | - |
| 1777536327 | 17.78° C | 99% | 1013.1 hPa | 0.51 mm | - | - | - |
| 1777535730 | 17.78° C | 99% | 1013.3 hPa | 0.51 mm | - | - | - |
| 1777534518 | 17.78° C | 99% | 1013.2 hPa | 0.51 mm | - | - | - |
| 1777527324 | 20.56° C | 99% | 1014.1 hPa | 0 mm | - | - | - |
| 1777523724 | 20.56° C | 99% | 1013.7 hPa | 0.25 mm | - | - | - |
| 1777521915 | 21.11° C | 99% | 1013.8 hPa | 0 mm | - | - | - |
| 1777515948 | 23.33° C | 99% | 1013.9 hPa | 0 mm | - | - | - |
| 1777509923 | 25° C | 99% | 1011.8 hPa | 0 mm | - | - | - |
| 1777506921 | 26.67° C | 99% | 1011.7 hPa | 0 mm | - | - | - |
| 1777505150 | 27.78° C | 99% | 1011.2 hPa | 0 mm | - | - | - |
* Rain latest hour (hover to see other rain measurements)
** Current wind speed in m/s (hover to see current wind gust speed)